Terminal Aerodrome Forecast
Issued by NWS

Home | Current Version | Previous Version | Text Only | Print | Product List | Glossary On
Versions: 1 2 3 4 5 6 7 8 9 10 11 12 13 14 15 16
014
FTUS45 KABQ 220329 AAA
TAFAEG
TAF AMD
KAEG 220329Z 2203/2224 20013KT P6SM BKN120
     FM220600 33006KT P6SM BKN150
     FM221500 12006KT P6SM FEW070 SCT120
     FM221900 15008KT P6SM SCT080 SCT150=

USA.gov is the U.S. government's official web portal to all federal, state and local government web resources and services.